IGO1606 WADD-VOBL
Flight info
| Callsign | IGO1606 |
|---|---|
| Flight time | N/A |
| Altitude | 36000 |
| Route | OKANG T4 FARIZ T6 KURUS/N0461F380 T6 DKI DCT PLB A585 ISVUR N563 LEKAP LEKAP7E |
| Aircraft | A20N/M-SDE2E3FGHIRWXY/LB1 |
Departure
| Time | 2026-05-08 02:29 |
|---|---|
| Airport | Denpasar I Gusti Ngurah Rai International Airport (WADD) |
Arrival
| Time | N/A |
|---|---|
| Airport | Kempegowda International Airport Bengaluru (VOBL) |
| Time | Latitude | Longitude | Altitude | Speed | Heading |
|---|---|---|---|---|---|
| 2026-05-08 02:04 | -8.74532 | 115.16863 | 23 ft | 0 kts | 358° |
| 2026-05-08 02:06 | -8.74533 | 115.16863 | 23 ft | 0 kts | 358° |
| 2026-05-08 02:06 | -8.74532 | 115.16863 | 23 ft | 0 kts | 358° |
| 2026-05-08 02:10 | -8.74533 | 115.16863 | 23 ft | 0 kts | 358° |
| 2026-05-08 02:10 | -8.74532 | 115.16863 | 23 ft | 0 kts | 358° |
| 2026-05-08 02:14 | -8.74533 | 115.16863 | 23 ft | 0 kts | 358° |
| 2026-05-08 02:15 | -8.74547 | 115.16864 | 23 ft | 2 kts | 357° |
| 2026-05-08 02:15 | -8.74564 | 115.16865 | 27 ft | 2 kts | 357° |
| 2026-05-08 02:15 | -8.74580 | 115.16866 | 24 ft | 2 kts | 357° |
| 2026-05-08 02:15 | -8.74596 | 115.16866 | 24 ft | 2 kts | 356° |
| 2026-05-08 02:16 | -8.74613 | 115.16868 | 23 ft | 2 kts | 355° |
| 2026-05-08 02:16 | -8.74629 | 115.16869 | 27 ft | 2 kts | 353° |
| 2026-05-08 02:16 | -8.74646 | 115.16872 | 26 ft | 2 kts | 346° |
| 2026-05-08 02:16 | -8.74661 | 115.16878 | 27 ft | 2 kts | 310° |
| 2026-05-08 02:17 | -8.74665 | 115.16889 | 28 ft | 1 kts | 271° |
| 2026-05-08 02:17 | -8.74665 | 115.16890 | 27 ft | 0 kts | 271° |
| 2026-05-08 02:17 | -8.74665 | 115.16897 | 28 ft | 2 kts | 271° |
| 2026-05-08 02:18 | -8.74665 | 115.16914 | 25 ft | 2 kts | 271° |
| 2026-05-08 02:18 | -8.74666 | 115.16930 | 27 ft | 2 kts | 271° |
| 2026-05-08 02:18 | -8.74666 | 115.16947 | 25 ft | 2 kts | 271° |
| 2026-05-08 02:18 | -8.74665 | 115.16963 | 26 ft | 2 kts | 266° |
| 2026-05-08 02:19 | -8.74665 | 115.16979 | 26 ft | 2 kts | 272° |
| 2026-05-08 02:19 | -8.74665 | 115.16981 | 26 ft | 0 kts | 272° |
| 2026-05-08 02:21 | -8.74664 | 115.16962 | 26 ft | 7 kts | 272° |
| 2026-05-08 02:22 | -8.74661 | 115.16892 | 27 ft | 12 kts | 272° |
| 2026-05-08 02:22 | -8.74667 | 115.16791 | 23 ft | 17 kts | 265° |
| 2026-05-08 02:22 | -8.74673 | 115.16671 | 23 ft | 14 kts | 268° |
| 2026-05-08 02:22 | -8.74676 | 115.16570 | 23 ft | 16 kts | 268° |
| 2026-05-08 02:23 | -8.74681 | 115.16441 | 23 ft | 21 kts | 267° |
| 2026-05-08 02:23 | -8.74689 | 115.16301 | 24 ft | 19 kts | 266° |
| 2026-05-08 02:23 | -8.74697 | 115.16170 | 24 ft | 18 kts | 267° |
| 2026-05-08 02:23 | -8.74701 | 115.16049 | 24 ft | 16 kts | 268° |
| 2026-05-08 02:24 | -8.74705 | 115.15938 | 24 ft | 15 kts | 268° |
| 2026-05-08 02:24 | -8.74709 | 115.15837 | 23 ft | 14 kts | 267° |
| 2026-05-08 02:24 | -8.74713 | 115.15744 | 23 ft | 13 kts | 268° |
| 2026-05-08 02:24 | -8.74717 | 115.15658 | 23 ft | 12 kts | 268° |
| 2026-05-08 02:25 | -8.74720 | 115.15579 | 23 ft | 11 kts | 267° |
| 2026-05-08 02:25 | -8.74723 | 115.15507 | 23 ft | 10 kts | 268° |
| 2026-05-08 02:25 | -8.74727 | 115.15440 | 23 ft | 10 kts | 263° |
| 2026-05-08 02:25 | -8.74757 | 115.15394 | 23 ft | 7 kts | 210° |
| 2026-05-08 02:26 | -8.74791 | 115.15388 | 24 ft | 0 kts | 177° |
| 2026-05-08 02:27 | -8.74798 | 115.15389 | 23 ft | 4 kts | 177° |
| 2026-05-08 02:27 | -8.74861 | 115.15392 | 23 ft | 13 kts | 174° |
| 2026-05-08 02:28 | -8.74891 | 115.15421 | 24 ft | 5 kts | 104° |
| 2026-05-08 02:28 | -8.74891 | 115.15447 | 23 ft | 0 kts | 88° |
| 2026-05-08 02:28 | -8.74891 | 115.15457 | 23 ft | 8 kts | 89° |
| 2026-05-08 02:28 | -8.74886 | 115.15661 | 23 ft | 56 kts | 88° |
| 2026-05-08 02:29 | -8.74859 | 115.16235 | 23 ft | 107 kts | 88° |
| 2026-05-08 02:29 | -8.74831 | 115.17137 | 39 ft | 144 kts | 89° |
| 2026-05-08 02:29 | -8.74826 | 115.18099 | 484 ft | 138 kts | 92° |
| 2026-05-08 02:29 | -8.74790 | 115.19111 | 695 ft | 150 kts | 89° |
| 2026-05-08 02:30 | -8.74740 | 115.20172 | 1070 ft | 149 kts | 89° |
| 2026-05-08 02:30 | -8.74692 | 115.21191 | 1595 ft | 145 kts | 89° |
| 2026-05-08 02:30 | -8.74645 | 115.22271 | 1856 ft | 165 kts | 90° |
| 2026-05-08 02:30 | -8.74596 | 115.23523 | 2177 ft | 191 kts | 88° |
| 2026-05-08 02:31 | -8.74542 | 115.24930 | 2508 ft | 211 kts | 89° |
| 2026-05-08 02:31 | -8.74484 | 115.26504 | 2699 ft | 237 kts | 89° |
| 2026-05-08 02:31 | -8.74442 | 115.27630 | 3029 ft | 244 kts | 89° |
| 2026-05-08 02:31 | -8.74376 | 115.29354 | 3673 ft | 248 kts | 89° |
| 2026-05-08 02:32 | -8.74307 | 115.31117 | 4310 ft | 252 kts | 89° |
| 2026-05-08 02:32 | -8.74235 | 115.32904 | 4960 ft | 256 kts | 89° |
| 2026-05-08 02:32 | -8.74163 | 115.34721 | 5589 ft | 261 kts | 89° |
| 2026-05-08 02:32 | -8.74088 | 115.36576 | 6211 ft | 266 kts | 88° |
| 2026-05-08 02:33 | -8.73841 | 115.38418 | 6799 ft | 271 kts | 75° |
| 2026-05-08 02:33 | -8.73030 | 115.40152 | 7375 ft | 278 kts | 54° |
| 2026-05-08 02:33 | -8.71577 | 115.41418 | 7969 ft | 285 kts | 28° |
| 2026-05-08 02:33 | -8.69642 | 115.41884 | 8580 ft | 292 kts | 358° |
| 2026-05-08 02:34 | -8.67677 | 115.41354 | 9227 ft | 295 kts | 335° |
| 2026-05-08 02:34 | -8.65873 | 115.40363 | 9898 ft | 296 kts | 329° |
| 2026-05-08 02:34 | -8.64087 | 115.39283 | 10340 ft | 305 kts | 329° |
| 2026-05-08 02:34 | -8.62215 | 115.38152 | 10555 ft | 321 kts | 329° |
| 2026-05-08 02:35 | -8.60240 | 115.36979 | 10758 ft | 337 kts | 329° |
| 2026-05-08 02:35 | -8.58169 | 115.35767 | 10949 ft | 351 kts | 330° |
| 2026-05-08 02:35 | -8.56014 | 115.34517 | 11227 ft | 361 kts | 330° |
| 2026-05-08 02:35 | -8.53844 | 115.33265 | 11633 ft | 366 kts | 330° |
| 2026-05-08 02:36 | -8.51622 | 115.31985 | 12089 ft | 369 kts | 330° |
| 2026-05-08 02:36 | -8.49402 | 115.30664 | 12522 ft | 372 kts | 326° |
| 2026-05-08 02:36 | -8.47476 | 115.28928 | 12984 ft | 373 kts | 307° |
| 2026-05-08 02:36 | -8.46273 | 115.26627 | 13441 ft | 373 kts | 285° |
| 2026-05-08 02:37 | -8.45929 | 115.24036 | 13886 ft | 373 kts | 270° |
| 2026-05-08 02:37 | -8.45989 | 115.21414 | 14330 ft | 374 kts | 266° |
| 2026-05-08 02:37 | -8.46130 | 115.18785 | 14785 ft | 375 kts | 265° |
| 2026-05-08 02:37 | -8.46270 | 115.16171 | 15222 ft | 377 kts | 265° |
| 2026-05-08 02:38 | -8.46394 | 115.13516 | 15685 ft | 379 kts | 266° |
| 2026-05-08 02:38 | -8.46502 | 115.10857 | 16140 ft | 380 kts | 266° |
| 2026-05-08 02:38 | -8.46600 | 115.08186 | 16573 ft | 382 kts | 266° |
| 2026-05-08 02:38 | -8.46689 | 115.05486 | 16983 ft | 385 kts | 267° |
| 2026-05-08 02:39 | -8.46538 | 115.02781 | 17359 ft | 390 kts | 278° |
| 2026-05-08 02:39 | -8.45742 | 115.00147 | 17752 ft | 395 kts | 292° |
| 2026-05-08 02:39 | -8.44296 | 114.97773 | 18129 ft | 400 kts | 307° |
| 2026-05-08 02:39 | -8.42263 | 114.95830 | 18442 ft | 406 kts | 322° |
| 2026-05-08 02:40 | -8.39882 | 114.94284 | 18769 ft | 409 kts | 327° |
| 2026-05-08 02:40 | -8.37412 | 114.92846 | 19100 ft | 411 kts | 328° |
| 2026-05-08 02:40 | -8.34956 | 114.91434 | 19425 ft | 412 kts | 328° |
| 2026-05-08 02:40 | -8.32461 | 114.90000 | 19729 ft | 413 kts | 328° |
| 2026-05-08 02:41 | -8.29966 | 114.88553 | 20024 ft | 414 kts | 328° |
| 2026-05-08 02:41 | -8.27460 | 114.87086 | 20315 ft | 416 kts | 328° |
| 2026-05-08 02:41 | -8.24959 | 114.85613 | 20609 ft | 417 kts | 328° |
| 2026-05-08 02:41 | -8.22445 | 114.84128 | 20910 ft | 418 kts | 328° |
| 2026-05-08 02:42 | -8.19937 | 114.82641 | 21197 ft | 420 kts | 328° |
| 2026-05-08 02:42 | -8.17440 | 114.81159 | 21512 ft | 421 kts | 328° |
| 2026-05-08 02:42 | -8.14913 | 114.79659 | 21824 ft | 423 kts | 328° |
| 2026-05-08 02:42 | -8.12379 | 114.78154 | 22132 ft | 424 kts | 328° |
| 2026-05-08 02:43 | -8.09825 | 114.76637 | 22450 ft | 426 kts | 328° |
| 2026-05-08 02:43 | -8.07259 | 114.75114 | 22759 ft | 428 kts | 328° |
| 2026-05-08 02:43 | -8.04709 | 114.73600 | 23068 ft | 429 kts | 328° |
| 2026-05-08 02:43 | -8.02112 | 114.72059 | 23379 ft | 431 kts | 328° |
| 2026-05-08 02:44 | -7.99527 | 114.70525 | 23637 ft | 432 kts | 328° |
| 2026-05-08 02:44 | -7.96925 | 114.68977 | 23876 ft | 434 kts | 328° |
| 2026-05-08 02:44 | -7.94423 | 114.67267 | 24111 ft | 435 kts | 320° |
| 2026-05-08 02:44 | -7.92210 | 114.65172 | 24356 ft | 435 kts | 310° |
| 2026-05-08 02:45 | -7.90410 | 114.62728 | 24620 ft | 436 kts | 301° |
| 2026-05-08 02:45 | -7.89031 | 114.60021 | 24869 ft | 436 kts | 291° |
| 2026-05-08 02:45 | -7.88071 | 114.57105 | 25133 ft | 437 kts | 285° |
| 2026-05-08 02:45 | -7.87319 | 114.54130 | 25409 ft | 439 kts | 283° |
| 2026-05-08 02:46 | -7.86605 | 114.51157 | 25681 ft | 440 kts | 283° |
| 2026-05-08 02:46 | -7.85872 | 114.48158 | 25933 ft | 442 kts | 283° |
| 2026-05-08 02:46 | -7.85114 | 114.45142 | 26208 ft | 444 kts | 284° |
| 2026-05-08 02:46 | -7.84340 | 114.42122 | 26466 ft | 446 kts | 284° |
| 2026-05-08 02:47 | -7.83552 | 114.39088 | 26719 ft | 448 kts | 284° |
| 2026-05-08 02:47 | -7.82755 | 114.36042 | 26961 ft | 450 kts | 284° |
| 2026-05-08 02:47 | -7.81952 | 114.32989 | 27203 ft | 452 kts | 284° |
| 2026-05-08 02:47 | -7.81143 | 114.29922 | 27459 ft | 453 kts | 284° |
| 2026-05-08 02:48 | -7.80337 | 114.26869 | 27691 ft | 455 kts | 284° |
| 2026-05-08 02:48 | -7.79519 | 114.23774 | 27901 ft | 457 kts | 284° |
| 2026-05-08 02:48 | -7.78700 | 114.20674 | 28124 ft | 459 kts | 284° |
| 2026-05-08 02:48 | -7.77877 | 114.17560 | 28341 ft | 461 kts | 284° |
| 2026-05-08 02:49 | -7.77049 | 114.14431 | 28549 ft | 463 kts | 284° |
| 2026-05-08 02:49 | -7.76207 | 114.11306 | 28773 ft | 464 kts | 286° |
| 2026-05-08 02:49 | -7.75068 | 114.08242 | 29055 ft | 465 kts | 296° |
| 2026-05-08 02:49 | -7.73463 | 114.05425 | 29349 ft | 465 kts | 302° |
| 2026-05-08 02:50 | -7.71668 | 114.02708 | 29645 ft | 465 kts | 304° |
| 2026-05-08 02:50 | -7.69814 | 114.00043 | 29937 ft | 465 kts | 304° |
| 2026-05-08 02:50 | -7.67943 | 113.97378 | 30176 ft | 464 kts | 304° |
| 2026-05-08 02:50 | -7.66093 | 113.94712 | 30430 ft | 464 kts | 304° |
| 2026-05-08 02:51 | -7.64273 | 113.92038 | 30698 ft | 463 kts | 303° |
| 2026-05-08 02:51 | -7.62477 | 113.89348 | 30955 ft | 462 kts | 303° |
| 2026-05-08 02:51 | -7.60721 | 113.86678 | 31217 ft | 460 kts | 303° |
| 2026-05-08 02:51 | -7.58963 | 113.83981 | 31479 ft | 459 kts | 303° |
| 2026-05-08 02:52 | -7.57214 | 113.81285 | 31734 ft | 459 kts | 303° |
| 2026-05-08 02:52 | -7.55470 | 113.78592 | 31975 ft | 458 kts | 303° |
| 2026-05-08 02:52 | -7.53723 | 113.75894 | 32215 ft | 457 kts | 303° |
| 2026-05-08 02:52 | -7.51983 | 113.73209 | 32444 ft | 457 kts | 303° |
| 2026-05-08 02:53 | -7.50265 | 113.70561 | 32674 ft | 456 kts | 303° |
| 2026-05-08 02:53 | -7.48520 | 113.67874 | 32899 ft | 456 kts | 303° |
| 2026-05-08 02:53 | -7.46789 | 113.65210 | 33113 ft | 455 kts | 303° |
| 2026-05-08 02:53 | -7.45052 | 113.62540 | 33331 ft | 455 kts | 303° |
| 2026-05-08 02:54 | -7.43311 | 113.59864 | 33541 ft | 454 kts | 303° |
| 2026-05-08 02:54 | -7.41577 | 113.57200 | 33744 ft | 454 kts | 303° |
| 2026-05-08 02:54 | -7.39867 | 113.54573 | 33937 ft | 454 kts | 303° |
| 2026-05-08 02:54 | -7.38130 | 113.51906 | 34119 ft | 453 kts | 303° |
| 2026-05-08 02:55 | -7.36395 | 113.49245 | 34306 ft | 452 kts | 303° |
| 2026-05-08 02:55 | -7.32952 | 113.43966 | 34674 ft | 450 kts | 303° |
| 2026-05-08 02:55 | -7.31252 | 113.41360 | 34852 ft | 449 kts | 303° |
| 2026-05-08 02:56 | -7.29536 | 113.38733 | 35025 ft | 448 kts | 303° |
| 2026-05-08 02:56 | -7.27825 | 113.36113 | 35181 ft | 448 kts | 303° |
| 2026-05-08 02:56 | -7.26112 | 113.33492 | 35354 ft | 447 kts | 303° |
| 2026-05-08 02:56 | -7.24401 | 113.30874 | 35515 ft | 446 kts | 303° |
| 2026-05-08 02:57 | -7.22692 | 113.28261 | 35661 ft | 446 kts | 303° |
| 2026-05-08 02:57 | -7.20983 | 113.25647 | 35805 ft | 446 kts | 303° |
| 2026-05-08 02:57 | -7.19278 | 113.23040 | 35864 ft | 446 kts | 303° |
| 2026-05-08 02:58 | -7.15883 | 113.17850 | 35871 ft | 445 kts | 303° |
| 2026-05-08 02:58 | -7.12475 | 113.12643 | 35873 ft | 445 kts | 303° |
| 2026-05-08 02:59 | -7.09065 | 113.07434 | 35870 ft | 445 kts | 303° |
| 2026-05-08 02:59 | -7.05672 | 113.02252 | 35869 ft | 445 kts | 303° |
| 2026-05-08 03:00 | -7.02254 | 112.97038 | 35870 ft | 445 kts | 303° |
| 2026-05-08 03:00 | -6.98862 | 112.91860 | 35870 ft | 445 kts | 303° |
| 2026-05-08 03:01 | -6.95441 | 112.86642 | 35866 ft | 444 kts | 303° |
| 2026-05-08 03:01 | -6.92053 | 112.81475 | 35872 ft | 445 kts | 303° |
| 2026-05-08 03:02 | -6.88640 | 112.76271 | 35873 ft | 445 kts | 303° |
| 2026-05-08 03:02 | -6.85214 | 112.71049 | 35870 ft | 446 kts | 303° |
| 2026-05-08 03:03 | -6.81802 | 112.65852 | 35872 ft | 446 kts | 303° |
| 2026-05-08 03:03 | -6.78375 | 112.60631 | 35870 ft | 447 kts | 303° |
| 2026-05-08 03:04 | -6.74944 | 112.55408 | 35870 ft | 447 kts | 303° |
| 2026-05-08 03:04 | -6.71534 | 112.50218 | 35871 ft | 447 kts | 303° |
| 2026-05-08 03:05 | -6.68098 | 112.44990 | 35872 ft | 447 kts | 303° |
| 2026-05-08 03:05 | -6.64663 | 112.39763 | 35872 ft | 447 kts | 303° |
| 2026-05-08 03:06 | -6.61249 | 112.34573 | 35870 ft | 447 kts | 303° |
| 2026-05-08 03:06 | -6.57808 | 112.29342 | 35869 ft | 447 kts | 303° |
| 2026-05-08 03:07 | -6.54373 | 112.24122 | 35870 ft | 447 kts | 303° |
| 2026-05-08 03:07 | -6.50960 | 112.18935 | 35871 ft | 447 kts | 303° |
| 2026-05-08 03:08 | -6.47528 | 112.13722 | 35871 ft | 447 kts | 303° |
| 2026-05-08 03:08 | -6.44095 | 112.08507 | 35871 ft | 447 kts | 303° |
| 2026-05-08 03:09 | -6.40670 | 112.03309 | 35870 ft | 447 kts | 303° |
| 2026-05-08 03:09 | -6.37227 | 111.98084 | 35870 ft | 447 kts | 303° |
| 2026-05-08 03:10 | -6.33786 | 111.92862 | 35869 ft | 447 kts | 303° |
| 2026-05-08 03:10 | -6.30349 | 111.87649 | 35866 ft | 447 kts | 303° |
| 2026-05-08 03:11 | -6.26926 | 111.82458 | 35868 ft | 447 kts | 303° |
| 2026-05-08 03:11 | -6.23498 | 111.77263 | 35869 ft | 447 kts | 303° |
| 2026-05-08 03:12 | -6.20054 | 111.72042 | 35868 ft | 447 kts | 303° |
| 2026-05-08 03:12 | -6.16630 | 111.66855 | 35872 ft | 447 kts | 303° |
| 2026-05-08 03:13 | -6.13183 | 111.61636 | 35870 ft | 448 kts | 303° |
| 2026-05-08 03:13 | -6.09734 | 111.56414 | 35872 ft | 448 kts | 303° |
| 2026-05-08 03:14 | -6.06281 | 111.51187 | 35874 ft | 448 kts | 303° |
| 2026-05-08 03:14 | -6.02828 | 111.45963 | 35874 ft | 448 kts | 303° |
| 2026-05-08 03:15 | -5.99386 | 111.40756 | 35870 ft | 448 kts | 303° |
| 2026-05-08 03:15 | -5.95954 | 111.35565 | 35871 ft | 448 kts | 303° |
| 2026-05-08 03:16 | -5.92506 | 111.30351 | 35876 ft | 448 kts | 303° |
| 2026-05-08 03:16 | -5.89270 | 111.24984 | 35875 ft | 447 kts | 293° |
| 2026-05-08 03:17 | -5.87787 | 111.19004 | 35878 ft | 446 kts | 272° |
| 2026-05-08 03:17 | -5.88164 | 111.12780 | 35878 ft | 447 kts | 263° |
| 2026-05-08 03:18 | -5.88999 | 111.06582 | 35874 ft | 448 kts | 262° |
| 2026-05-08 03:18 | -5.89827 | 111.00379 | 35875 ft | 448 kts | 263° |
| 2026-05-08 03:19 | -5.90450 | 110.95211 | 35878 ft | 448 kts | 264° |
| 2026-05-08 03:19 | -5.91262 | 110.87972 | 35876 ft | 448 kts | 264° |
| 2026-05-08 03:20 | -5.91835 | 110.82756 | 35876 ft | 448 kts | 264° |
| 2026-05-08 03:20 | -5.92521 | 110.76526 | 35876 ft | 448 kts | 264° |
| 2026-05-08 03:21 | -5.93204 | 110.70349 | 35876 ft | 448 kts | 264° |
| 2026-05-08 03:21 | -5.93893 | 110.64125 | 35875 ft | 448 kts | 264° |
| 2026-05-08 03:22 | -5.94582 | 110.57901 | 35872 ft | 448 kts | 264° |
| 2026-05-08 03:22 | -5.95271 | 110.51671 | 35876 ft | 448 kts | 264° |
| 2026-05-08 03:23 | -5.95954 | 110.45484 | 35874 ft | 449 kts | 264° |
| 2026-05-08 03:23 | -5.96613 | 110.39246 | 35871 ft | 449 kts | 268° |
| 2026-05-08 03:24 | -5.96679 | 110.32965 | 35874 ft | 448 kts | 271° |
| 2026-05-08 03:24 | -5.96590 | 110.26681 | 35874 ft | 449 kts | 271° |
| 2026-05-08 03:25 | -5.96522 | 110.20432 | 35873 ft | 449 kts | 271° |
| 2026-05-08 03:25 | -5.96494 | 110.14152 | 35874 ft | 450 kts | 271° |
| 2026-05-08 03:26 | -5.96489 | 110.07862 | 35877 ft | 450 kts | 271° |
| 2026-05-08 03:26 | -5.96490 | 110.01570 | 35872 ft | 450 kts | 271° |
| 2026-05-08 03:27 | -5.96491 | 109.95297 | 35873 ft | 450 kts | 271° |
| 2026-05-08 03:27 | -5.96490 | 109.89037 | 35874 ft | 450 kts | 271° |
| 2026-05-08 03:28 | -5.96486 | 109.82728 | 35871 ft | 451 kts | 271° |
| 2026-05-08 03:28 | -5.96482 | 109.76419 | 35872 ft | 451 kts | 271° |
| 2026-05-08 03:29 | -5.96477 | 109.70144 | 35870 ft | 451 kts | 271° |
| 2026-05-08 03:29 | -5.96471 | 109.63825 | 35873 ft | 452 kts | 271° |
| 2026-05-08 03:30 | -5.96460 | 109.54346 | 35873 ft | 452 kts | 271° |
| 2026-05-08 03:31 | -5.96444 | 109.41712 | 35875 ft | 453 kts | 271° |
| 2026-05-08 03:32 | -5.96431 | 109.32219 | 35872 ft | 453 kts | 271° |
| 2026-05-08 03:32 | -5.96421 | 109.25924 | 35871 ft | 453 kts | 271° |
| 2026-05-08 03:33 | -5.96411 | 109.19586 | 35870 ft | 453 kts | 271° |
| 2026-05-08 03:33 | -5.96400 | 109.13235 | 35870 ft | 453 kts | 271° |
| 2026-05-08 03:34 | -5.96388 | 109.06929 | 35869 ft | 453 kts | 271° |
| 2026-05-08 03:34 | -5.96375 | 109.00579 | 35874 ft | 454 kts | 271° |
| 2026-05-08 03:35 | -5.96362 | 108.94268 | 35870 ft | 454 kts | 271° |
| 2026-05-08 03:35 | -5.96347 | 108.87930 | 35872 ft | 454 kts | 271° |
| 2026-05-08 03:36 | -5.96332 | 108.81279 | 35870 ft | 454 kts | 271° |
| 2026-05-08 03:36 | -5.96317 | 108.74965 | 35872 ft | 454 kts | 271° |
| 2026-05-08 03:37 | -5.96300 | 108.68617 | 35869 ft | 454 kts | 271° |
| 2026-05-08 03:37 | -5.96283 | 108.62259 | 35871 ft | 455 kts | 271° |
| 2026-05-08 03:38 | -5.96264 | 108.55887 | 35870 ft | 455 kts | 271° |
| 2026-05-08 03:38 | -5.96245 | 108.49554 | 35869 ft | 455 kts | 272° |
| 2026-05-08 03:39 | -5.96231 | 108.43177 | 35872 ft | 456 kts | 271° |
| 2026-05-08 03:39 | -5.96226 | 108.36844 | 35871 ft | 456 kts | 271° |
| 2026-05-08 03:40 | -5.96222 | 108.30471 | 35872 ft | 456 kts | 271° |
| 2026-05-08 03:40 | -5.96216 | 108.24078 | 35872 ft | 456 kts | 271° |
| 2026-05-08 03:41 | -5.96209 | 108.17707 | 35869 ft | 456 kts | 271° |
| 2026-05-08 03:41 | -5.96200 | 108.11342 | 35869 ft | 457 kts | 271° |
| 2026-05-08 03:42 | -5.96191 | 108.04945 | 35872 ft | 457 kts | 271° |
| 2026-05-08 03:42 | -5.96182 | 107.98587 | 35871 ft | 457 kts | 271° |
| 2026-05-08 03:43 | -5.96178 | 107.92185 | 35870 ft | 457 kts | 271° |
| 2026-05-08 03:43 | -5.96179 | 107.85795 | 35870 ft | 457 kts | 271° |
| 2026-05-08 03:44 | -5.96180 | 107.79393 | 35872 ft | 458 kts | 271° |
| 2026-05-08 03:44 | -5.96180 | 107.73035 | 35870 ft | 458 kts | 271° |
| 2026-05-08 03:45 | -5.96178 | 107.66618 | 35872 ft | 458 kts | 271° |
| 2026-05-08 03:45 | -5.96176 | 107.60208 | 35871 ft | 458 kts | 271° |
| 2026-05-08 03:46 | -5.96173 | 107.53840 | 35871 ft | 458 kts | 271° |
| 2026-05-08 03:46 | -5.96170 | 107.47438 | 35870 ft | 458 kts | 271° |
| 2026-05-08 03:47 | -5.96165 | 107.41015 | 35871 ft | 458 kts | 271° |
| 2026-05-08 03:47 | -5.96160 | 107.34648 | 35870 ft | 458 kts | 271° |
| 2026-05-08 03:48 | -5.96154 | 107.28228 | 35871 ft | 458 kts | 271° |
| 2026-05-08 03:48 | -5.96148 | 107.21861 | 35871 ft | 458 kts | 271° |
| 2026-05-08 03:49 | -5.96141 | 107.15441 | 35872 ft | 458 kts | 271° |
| 2026-05-08 03:49 | -5.95869 | 107.09056 | 35870 ft | 456 kts | 281° |
| 2026-05-08 03:49 | -5.95088 | 107.05976 | 35872 ft | 454 kts | 292° |
| 2026-05-08 03:50 | -5.93743 | 107.03118 | 35869 ft | 451 kts | 303° |
| 2026-05-08 03:50 | -5.91890 | 107.00594 | 35873 ft | 449 kts | 314° |
| 2026-05-08 03:50 | -5.89649 | 106.98477 | 35871 ft | 447 kts | 321° |
| 2026-05-08 03:51 | -5.84712 | 106.94644 | 35868 ft | 449 kts | 325° |
| 2026-05-08 03:51 | -5.79657 | 106.90922 | 35864 ft | 449 kts | 325° |
| 2026-05-08 03:52 | -5.74669 | 106.87172 | 35859 ft | 450 kts | 324° |
| 2026-05-08 03:52 | -5.70529 | 106.83991 | 35857 ft | 450 kts | 324° |
| 2026-05-08 03:53 | -5.64761 | 106.79513 | 35858 ft | 450 kts | 324° |
| 2026-05-08 03:53 | -5.60609 | 106.76282 | 35858 ft | 450 kts | 324° |
| 2026-05-08 03:54 | -5.55687 | 106.72455 | 35859 ft | 450 kts | 324° |
| 2026-05-08 03:54 | -5.50728 | 106.68604 | 35861 ft | 450 kts | 324° |
| 2026-05-08 03:55 | -5.45774 | 106.64759 | 35864 ft | 450 kts | 324° |
| 2026-05-08 03:55 | -5.40843 | 106.60933 | 35865 ft | 450 kts | 324° |
| 2026-05-08 03:56 | -5.35884 | 106.57086 | 35866 ft | 450 kts | 324° |
| 2026-05-08 03:56 | -5.30932 | 106.53246 | 35866 ft | 450 kts | 324° |
| 2026-05-08 03:57 | -5.25958 | 106.49389 | 35870 ft | 450 kts | 324° |
| 2026-05-08 03:57 | -5.21028 | 106.45567 | 35867 ft | 450 kts | 324° |
| 2026-05-08 03:58 | -5.16065 | 106.41720 | 35869 ft | 450 kts | 324° |
| 2026-05-08 03:58 | -5.11101 | 106.37875 | 35872 ft | 450 kts | 324° |
| 2026-05-08 03:59 | -5.06163 | 106.34050 | 35874 ft | 450 kts | 324° |
| 2026-05-08 03:59 | -5.01208 | 106.30213 | 35873 ft | 450 kts | 324° |
| 2026-05-08 04:00 | -4.96233 | 106.26361 | 35878 ft | 450 kts | 324° |
| 2026-05-08 04:00 | -4.91298 | 106.22540 | 35875 ft | 450 kts | 324° |
| 2026-05-08 04:01 | -4.86330 | 106.18694 | 35874 ft | 450 kts | 324° |
| 2026-05-08 04:01 | -4.81356 | 106.14846 | 35879 ft | 450 kts | 324° |
| 2026-05-08 04:02 | -4.76415 | 106.11022 | 35884 ft | 450 kts | 324° |
| 2026-05-08 04:02 | -4.71460 | 106.07189 | 35881 ft | 450 kts | 324° |
| 2026-05-08 04:03 | -4.66512 | 106.03363 | 35880 ft | 450 kts | 324° |
| 2026-05-08 04:03 | -4.59058 | 105.97601 | 35877 ft | 451 kts | 324° |
| 2026-05-08 04:04 | -4.54078 | 105.93752 | 35877 ft | 451 kts | 324° |
| 2026-05-08 04:04 | -4.49122 | 105.89923 | 35876 ft | 451 kts | 324° |
| 2026-05-08 04:05 | -4.44142 | 105.86075 | 35874 ft | 451 kts | 324° |
| 2026-05-08 04:05 | -4.39199 | 105.82257 | 35870 ft | 451 kts | 324° |
| 2026-05-08 04:06 | -4.34238 | 105.78425 | 35868 ft | 451 kts | 324° |
| 2026-05-08 04:06 | -4.29243 | 105.74567 | 35868 ft | 451 kts | 324° |
| 2026-05-08 04:07 | -4.24251 | 105.70712 | 35868 ft | 452 kts | 324° |
| 2026-05-08 04:07 | -4.19306 | 105.66894 | 35868 ft | 452 kts | 324° |
| 2026-05-08 04:08 | -4.14314 | 105.63041 | 35871 ft | 452 kts | 324° |
| 2026-05-08 04:08 | -4.09355 | 105.59213 | 35873 ft | 452 kts | 324° |
| 2026-05-08 04:09 | -4.04384 | 105.55378 | 35870 ft | 452 kts | 324° |
| 2026-05-08 04:09 | -3.99397 | 105.51529 | 35870 ft | 452 kts | 324° |
| 2026-05-08 04:10 | -3.94417 | 105.47688 | 35872 ft | 452 kts | 324° |
| 2026-05-08 04:10 | -3.89431 | 105.43841 | 35870 ft | 452 kts | 324° |
| 2026-05-08 04:11 | -3.84477 | 105.40020 | 35872 ft | 452 kts | 324° |
| 2026-05-08 04:11 | -3.79488 | 105.36173 | 35872 ft | 452 kts | 324° |
| 2026-05-08 04:12 | -3.74496 | 105.32323 | 35874 ft | 452 kts | 324° |
| 2026-05-08 04:12 | -3.69509 | 105.28477 | 35871 ft | 452 kts | 324° |
| 2026-05-08 04:13 | -3.64548 | 105.24654 | 35872 ft | 453 kts | 324° |
| 2026-05-08 04:13 | -3.59551 | 105.20802 | 35874 ft | 453 kts | 324° |
| 2026-05-08 04:14 | -3.54558 | 105.16956 | 35873 ft | 453 kts | 324° |
| 2026-05-08 04:14 | -3.49545 | 105.13095 | 35874 ft | 453 kts | 324° |
| 2026-05-08 04:15 | -3.44571 | 105.09263 | 35872 ft | 454 kts | 324° |
| 2026-05-08 04:15 | -3.39552 | 105.05398 | 35874 ft | 454 kts | 324° |
| 2026-05-08 04:16 | -3.34530 | 105.01531 | 35873 ft | 454 kts | 324° |
| 2026-05-08 04:16 | -3.29539 | 104.97688 | 35872 ft | 454 kts | 324° |
| 2026-05-08 04:17 | -3.24534 | 104.93835 | 35873 ft | 455 kts | 324° |
| 2026-05-08 04:17 | -3.19509 | 104.89967 | 35860 ft | 455 kts | 324° |
| 2026-05-08 04:18 | -3.14492 | 104.86106 | 35866 ft | 455 kts | 324° |
| 2026-05-08 04:18 | -3.09479 | 104.82249 | 35870 ft | 455 kts | 324° |
| 2026-05-08 04:19 | -3.04487 | 104.78408 | 35877 ft | 455 kts | 324° |
| 2026-05-08 04:19 | -2.99467 | 104.74547 | 35882 ft | 455 kts | 324° |
| 2026-05-08 04:20 | -2.94441 | 104.70681 | 35884 ft | 455 kts | 324° |
| 2026-05-08 04:20 | -2.89451 | 104.66844 | 35885 ft | 455 kts | 323° |
| 2026-05-08 04:21 | -2.84826 | 104.62509 | 35886 ft | 456 kts | 315° |
| 2026-05-08 04:21 | -2.80421 | 104.57928 | 35878 ft | 456 kts | 315° |
| 2026-05-08 04:22 | -2.75967 | 104.53413 | 35873 ft | 456 kts | 316° |
| 2026-05-08 04:22 | -2.71462 | 104.48980 | 35867 ft | 456 kts | 317° |
| 2026-05-08 04:23 | -2.66913 | 104.44553 | 35863 ft | 456 kts | 317° |
| 2026-05-08 04:23 | -2.62358 | 104.40125 | 35866 ft | 456 kts | 317° |
| 2026-05-08 04:24 | -2.57797 | 104.35685 | 35864 ft | 456 kts | 317° |
| 2026-05-08 04:24 | -2.53248 | 104.31251 | 35866 ft | 457 kts | 317° |
| 2026-05-08 04:25 | -2.48703 | 104.26820 | 35864 ft | 457 kts | 317° |
| 2026-05-08 04:25 | -2.44144 | 104.22378 | 35868 ft | 457 kts | 317° |
| 2026-05-08 04:26 | -2.39590 | 104.17940 | 35869 ft | 457 kts | 317° |
| 2026-05-08 04:26 | -2.35067 | 104.13534 | 35868 ft | 457 kts | 317° |
| 2026-05-08 04:27 | -2.30510 | 104.09096 | 35870 ft | 457 kts | 317° |
| 2026-05-08 04:27 | -2.25944 | 104.04649 | 35872 ft | 457 kts | 317° |
| 2026-05-08 04:28 | -2.21386 | 104.00211 | 35873 ft | 458 kts | 317° |
| 2026-05-08 04:28 | -2.16814 | 103.95760 | 35875 ft | 457 kts | 317° |
| 2026-05-08 04:29 | -2.12273 | 103.91339 | 35871 ft | 457 kts | 317° |
| 2026-05-08 04:29 | -2.07713 | 103.86901 | 35872 ft | 457 kts | 317° |
| 2026-05-08 04:30 | -2.03154 | 103.82463 | 35877 ft | 457 kts | 317° |
| 2026-05-08 04:30 | -1.98624 | 103.78053 | 35876 ft | 456 kts | 317° |
| 2026-05-08 04:31 | -1.94073 | 103.73624 | 35876 ft | 456 kts | 317° |
| 2026-05-08 04:31 | -1.89517 | 103.69189 | 35878 ft | 456 kts | 317° |
| 2026-05-08 04:32 | -1.84958 | 103.64752 | 35882 ft | 457 kts | 317° |
| 2026-05-08 04:32 | -1.80433 | 103.60348 | 35882 ft | 457 kts | 317° |
| 2026-05-08 04:33 | -1.75844 | 103.55882 | 35880 ft | 457 kts | 317° |
| 2026-05-08 04:33 | -1.71308 | 103.51468 | 35881 ft | 457 kts | 317° |
| 2026-05-08 04:34 | -1.66747 | 103.47031 | 35880 ft | 458 kts | 317° |
| 2026-05-08 04:34 | -1.62173 | 103.42580 | 35882 ft | 458 kts | 317° |
| 2026-05-08 04:35 | -1.57601 | 103.38134 | 35881 ft | 458 kts | 317° |
| 2026-05-08 04:35 | -1.53051 | 103.33708 | 35883 ft | 458 kts | 317° |
| 2026-05-08 04:36 | -1.48472 | 103.29254 | 35884 ft | 458 kts | 317° |
| 2026-05-08 04:36 | -1.43922 | 103.24829 | 35884 ft | 458 kts | 317° |
| 2026-05-08 04:37 | -1.39354 | 103.20387 | 35885 ft | 458 kts | 316° |
| 2026-05-08 04:37 | -1.34781 | 103.15939 | 35885 ft | 458 kts | 316° |
| 2026-05-08 04:38 | -1.30979 | 103.12242 | 35887 ft | 458 kts | 316° |
| 2026-05-08 04:38 | -1.25668 | 103.07077 | 35885 ft | 457 kts | 316° |
| 2026-05-08 04:39 | -1.21091 | 103.02626 | 35888 ft | 457 kts | 316° |
| 2026-05-08 04:39 | -1.16554 | 102.98214 | 35887 ft | 457 kts | 316° |
| 2026-05-08 04:40 | -1.11990 | 102.93776 | 35888 ft | 457 kts | 316° |
| 2026-05-08 04:40 | -1.08209 | 102.90100 | 35887 ft | 457 kts | 316° |
| 2026-05-08 04:41 | -1.03632 | 102.85654 | 35890 ft | 457 kts | 317° |
| 2026-05-08 04:41 | -0.99075 | 102.81232 | 35889 ft | 457 kts | 317° |
| 2026-05-08 04:42 | -0.94519 | 102.76813 | 35887 ft | 457 kts | 317° |
| 2026-05-08 04:42 | -0.89958 | 102.72388 | 35887 ft | 457 kts | 317° |
| 2026-05-08 04:43 | -0.85423 | 102.67988 | 35884 ft | 457 kts | 317° |
| 2026-05-08 04:43 | -0.80852 | 102.63554 | 35885 ft | 457 kts | 317° |
| 2026-05-08 04:44 | -0.76312 | 102.59149 | 35883 ft | 457 kts | 317° |
| 2026-05-08 04:44 | -0.71740 | 102.54714 | 35879 ft | 457 kts | 317° |
| 2026-05-08 04:45 | -0.67198 | 102.50308 | 35875 ft | 457 kts | 317° |
| 2026-05-08 04:45 | -0.62630 | 102.45877 | 35873 ft | 455 kts | 317° |
| 2026-05-08 04:46 | -0.58083 | 102.41468 | 35871 ft | 454 kts | 317° |
| 2026-05-08 04:46 | -0.53564 | 102.37087 | 35871 ft | 454 kts | 317° |
| 2026-05-08 04:47 | -0.49015 | 102.32676 | 35866 ft | 454 kts | 317° |
| 2026-05-08 04:47 | -0.44502 | 102.28299 | 35866 ft | 454 kts | 316° |
| 2026-05-08 04:48 | -0.39961 | 102.23894 | 35862 ft | 454 kts | 317° |
| 2026-05-08 04:48 | -0.35423 | 102.19492 | 35861 ft | 454 kts | 316° |
| 2026-05-08 04:49 | -0.30913 | 102.15118 | 35859 ft | 454 kts | 317° |
| 2026-05-08 04:49 | -0.26366 | 102.10708 | 35859 ft | 454 kts | 316° |
| 2026-05-08 04:50 | -0.21822 | 102.06301 | 35855 ft | 454 kts | 317° |
| 2026-05-08 04:50 | -0.17322 | 102.01937 | 35854 ft | 454 kts | 316° |
| 2026-05-08 04:51 | -0.12788 | 101.97540 | 35853 ft | 454 kts | 316° |
| 2026-05-08 04:51 | -0.08270 | 101.93159 | 35851 ft | 453 kts | 316° |
| 2026-05-08 04:52 | -0.03739 | 101.88767 | 35851 ft | 453 kts | 316° |
| 2026-05-08 04:52 | 0.00791 | 101.84374 | 35869 ft | 454 kts | 317° |
| 2026-05-08 04:53 | 0.05358 | 101.79944 | 35843 ft | 458 kts | 317° |
| 2026-05-08 04:53 | 0.09940 | 101.75497 | 35841 ft | 460 kts | 317° |
| 2026-05-08 04:54 | 0.14516 | 101.71056 | 35839 ft | 460 kts | 317° |
| 2026-05-08 04:54 | 0.19105 | 101.66603 | 35841 ft | 460 kts | 317° |
| 2026-05-08 04:55 | 0.23675 | 101.62171 | 35845 ft | 460 kts | 317° |
| 2026-05-08 04:55 | 0.28273 | 101.57713 | 35847 ft | 460 kts | 317° |
| 2026-05-08 04:56 | 0.32871 | 101.53254 | 35850 ft | 460 kts | 317° |
| 2026-05-08 04:56 | 0.37440 | 101.48824 | 35855 ft | 460 kts | 317° |
| 2026-05-08 04:57 | 0.42051 | 101.44354 | 35857 ft | 461 kts | 317° |
| 2026-05-08 04:57 | 0.46723 | 101.39976 | 35856 ft | 461 kts | 318° |
| 2026-05-08 04:58 | 0.51443 | 101.35660 | 35858 ft | 461 kts | 319° |
| 2026-05-08 04:58 | 0.56182 | 101.31335 | 35851 ft | 461 kts | 319° |
| 2026-05-08 04:59 | 0.60921 | 101.26994 | 35849 ft | 461 kts | 318° |
| 2026-05-08 04:59 | 0.65621 | 101.22678 | 35843 ft | 461 kts | 318° |
| 2026-05-08 05:00 | 0.70350 | 101.18332 | 35842 ft | 461 kts | 318° |
| 2026-05-08 05:00 | 0.75060 | 101.14003 | 35844 ft | 461 kts | 318° |
| 2026-05-08 05:01 | 0.79790 | 101.09657 | 35842 ft | 461 kts | 319° |
| 2026-05-08 05:01 | 0.84524 | 101.05307 | 35847 ft | 462 kts | 319° |
| 2026-05-08 05:02 | 0.89232 | 101.00980 | 35846 ft | 462 kts | 318° |
| 2026-05-08 05:02 | 0.93967 | 100.96630 | 35845 ft | 462 kts | 318° |
| 2026-05-08 05:03 | 0.98704 | 100.92277 | 35848 ft | 461 kts | 318° |
| 2026-05-08 05:03 | 1.03396 | 100.87964 | 35844 ft | 461 kts | 319° |
| 2026-05-08 05:04 | 1.08134 | 100.83609 | 35850 ft | 461 kts | 319° |
| 2026-05-08 05:04 | 1.12836 | 100.79288 | 35848 ft | 461 kts | 319° |
| 2026-05-08 05:05 | 1.17567 | 100.74940 | 35850 ft | 461 kts | 319° |
| 2026-05-08 05:05 | 1.22290 | 100.70598 | 35852 ft | 461 kts | 319° |
| 2026-05-08 05:06 | 1.26995 | 100.66273 | 35855 ft | 460 kts | 319° |
| 2026-05-08 05:06 | 1.31696 | 100.61952 | 35854 ft | 460 kts | 319° |
| 2026-05-08 05:07 | 1.36429 | 100.57601 | 35854 ft | 460 kts | 319° |
| 2026-05-08 05:07 | 1.41156 | 100.53256 | 35860 ft | 461 kts | 319° |
| 2026-05-08 05:08 | 1.45866 | 100.48926 | 35859 ft | 461 kts | 319° |
| 2026-05-08 05:08 | 1.50558 | 100.44612 | 35865 ft | 461 kts | 319° |
| 2026-05-08 05:09 | 1.55290 | 100.40260 | 35862 ft | 461 kts | 319° |
| 2026-05-08 05:09 | 1.60011 | 100.35920 | 35863 ft | 461 kts | 319° |
| 2026-05-08 05:10 | 1.67081 | 100.29418 | 35867 ft | 461 kts | 319° |
| 2026-05-08 05:11 | 1.71818 | 100.25061 | 35867 ft | 461 kts | 319° |
| 2026-05-08 05:11 | 1.76548 | 100.20711 | 35863 ft | 461 kts | 318° |
| 2026-05-08 05:12 | 1.81239 | 100.16397 | 35865 ft | 461 kts | 318° |
| 2026-05-08 05:12 | 1.85971 | 100.12044 | 35866 ft | 461 kts | 318° |
| 2026-05-08 05:13 | 1.90706 | 100.07688 | 35870 ft | 461 kts | 319° |
| 2026-05-08 05:13 | 1.95410 | 100.03360 | 35868 ft | 462 kts | 319° |
| 2026-05-08 05:14 | 2.00136 | 99.99011 | 35872 ft | 462 kts | 319° |
| 2026-05-08 05:14 | 2.04881 | 99.94644 | 35874 ft | 462 kts | 319° |
| 2026-05-08 05:15 | 2.09595 | 99.90305 | 35879 ft | 462 kts | 319° |
| 2026-05-08 05:15 | 2.14339 | 99.85938 | 35878 ft | 463 kts | 319° |
| 2026-05-08 05:16 | 2.19076 | 99.81578 | 35884 ft | 463 kts | 319° |
| 2026-05-08 05:16 | 2.23822 | 99.77210 | 35886 ft | 463 kts | 319° |
| 2026-05-08 05:17 | 2.28546 | 99.72861 | 35889 ft | 463 kts | 319° |
| 2026-05-08 05:17 | 2.33291 | 99.68494 | 35895 ft | 464 kts | 319° |
| 2026-05-08 05:18 | 2.38047 | 99.64115 | 35896 ft | 464 kts | 318° |
| 2026-05-08 05:18 | 2.42804 | 99.59735 | 35897 ft | 464 kts | 318° |
| 2026-05-08 05:19 | 2.47525 | 99.55386 | 35902 ft | 464 kts | 319° |
| 2026-05-08 05:19 | 2.52279 | 99.51007 | 35904 ft | 464 kts | 319° |
| 2026-05-08 05:20 | 2.57028 | 99.46632 | 35900 ft | 464 kts | 319° |
| 2026-05-08 05:20 | 2.61786 | 99.42248 | 35901 ft | 464 kts | 319° |
| 2026-05-08 05:21 | 2.66509 | 99.37896 | 35900 ft | 463 kts | 319° |
| 2026-05-08 05:21 | 2.71256 | 99.33521 | 35902 ft | 463 kts | 319° |
| 2026-05-08 05:22 | 2.75994 | 99.29155 | 35897 ft | 463 kts | 319° |
| 2026-05-08 05:22 | 2.80711 | 99.24808 | 35899 ft | 463 kts | 319° |
| 2026-05-08 05:23 | 2.85449 | 99.20441 | 35898 ft | 462 kts | 319° |
| 2026-05-08 05:23 | 2.90188 | 99.16073 | 35895 ft | 462 kts | 319° |
| 2026-05-08 05:24 | 2.94920 | 99.11710 | 35897 ft | 462 kts | 319° |
| 2026-05-08 05:24 | 2.98854 | 99.08082 | 35889 ft | 462 kts | 319° |
| 2026-05-08 05:25 | 3.04362 | 99.03002 | 35890 ft | 462 kts | 319° |
| 2026-05-08 05:25 | 3.09086 | 98.98644 | 35885 ft | 462 kts | 319° |
| 2026-05-08 05:26 | 3.13014 | 98.95020 | 35888 ft | 462 kts | 319° |
| 2026-05-08 05:26 | 3.17736 | 98.90664 | 35885 ft | 462 kts | 319° |
| 2026-05-08 05:27 | 3.22463 | 98.86303 | 35886 ft | 462 kts | 319° |
| 2026-05-08 05:27 | 3.27183 | 98.81947 | 35882 ft | 462 kts | 319° |
| 2026-05-08 05:28 | 3.31884 | 98.77609 | 35877 ft | 462 kts | 319° |
| 2026-05-08 05:28 | 3.36624 | 98.73234 | 35874 ft | 463 kts | 319° |
| 2026-05-08 05:29 | 3.41361 | 98.68861 | 35868 ft | 463 kts | 319° |
| 2026-05-08 05:29 | 3.46099 | 98.64486 | 35867 ft | 462 kts | 319° |
| 2026-05-08 05:30 | 3.50441 | 98.59796 | 35862 ft | 464 kts | 305° |
| 2026-05-08 05:30 | 3.53519 | 98.54113 | 35864 ft | 466 kts | 296° |
| 2026-05-08 05:31 | 3.56159 | 98.48171 | 35865 ft | 467 kts | 294° |
| 2026-05-08 05:31 | 3.58748 | 98.42204 | 35865 ft | 467 kts | 294° |
| 2026-05-08 05:32 | 3.61369 | 98.36295 | 35863 ft | 467 kts | 295° |
| 2026-05-08 05:32 | 3.64047 | 98.30364 | 35867 ft | 467 kts | 295° |
| 2026-05-08 05:33 | 3.66742 | 98.24438 | 35872 ft | 467 kts | 295° |
| 2026-05-08 05:33 | 3.69436 | 98.18520 | 35879 ft | 467 kts | 295° |
| 2026-05-08 05:34 | 3.72112 | 98.12636 | 35882 ft | 467 kts | 295° |
| 2026-05-08 05:34 | 3.74801 | 98.06719 | 35892 ft | 467 kts | 295° |
| 2026-05-08 05:35 | 3.77496 | 98.00786 | 35899 ft | 467 kts | 295° |
| 2026-05-08 05:35 | 3.80190 | 97.94854 | 35903 ft | 467 kts | 295° |
| 2026-05-08 05:36 | 3.82864 | 97.88962 | 35915 ft | 467 kts | 295° |
| 2026-05-08 05:36 | 3.85558 | 97.83022 | 35919 ft | 468 kts | 295° |
| 2026-05-08 05:37 | 3.88251 | 97.77085 | 35934 ft | 468 kts | 295° |
| 2026-05-08 05:37 | 3.90930 | 97.71174 | 35934 ft | 468 kts | 295° |
| 2026-05-08 05:38 | 3.93625 | 97.65231 | 35945 ft | 468 kts | 295° |
| 2026-05-08 05:38 | 3.96319 | 97.59289 | 35954 ft | 468 kts | 295° |
| 2026-05-08 05:39 | 3.99011 | 97.53349 | 35954 ft | 469 kts | 295° |
| 2026-05-08 05:39 | 4.01704 | 97.47404 | 35957 ft | 468 kts | 295° |
| 2026-05-08 05:40 | 4.04385 | 97.41488 | 35961 ft | 469 kts | 295° |
| 2026-05-08 05:40 | 4.07080 | 97.35538 | 35959 ft | 469 kts | 295° |
| 2026-05-08 05:41 | 4.09773 | 97.29591 | 35957 ft | 469 kts | 295° |
| 2026-05-08 05:41 | 4.12468 | 97.23637 | 35957 ft | 469 kts | 295° |
| 2026-05-08 05:42 | 4.15164 | 97.17684 | 35953 ft | 469 kts | 295° |
| 2026-05-08 05:42 | 4.17848 | 97.11753 | 35951 ft | 469 kts | 295° |
| 2026-05-08 05:43 | 4.20545 | 97.05791 | 35949 ft | 469 kts | 295° |
| 2026-05-08 05:43 | 4.23228 | 96.99858 | 35949 ft | 469 kts | 295° |
| 2026-05-08 05:44 | 4.25922 | 96.93899 | 35944 ft | 469 kts | 295° |
| 2026-05-08 05:44 | 4.28619 | 96.87935 | 35943 ft | 469 kts | 295° |
| 2026-05-08 05:45 | 4.31309 | 96.81981 | 35942 ft | 469 kts | 295° |
| 2026-05-08 05:45 | 4.34003 | 96.76020 | 35937 ft | 469 kts | 295° |
| 2026-05-08 05:46 | 4.36694 | 96.70063 | 35935 ft | 469 kts | 295° |
| 2026-05-08 05:46 | 4.39388 | 96.64100 | 35934 ft | 469 kts | 295° |
| 2026-05-08 05:47 | 4.42079 | 96.58141 | 35929 ft | 469 kts | 295° |
| 2026-05-08 05:47 | 4.44753 | 96.52221 | 35920 ft | 469 kts | 295° |
| 2026-05-08 05:48 | 4.47441 | 96.46265 | 35913 ft | 469 kts | 295° |
| 2026-05-08 05:48 | 4.50125 | 96.40317 | 35906 ft | 468 kts | 295° |
| 2026-05-08 05:49 | 4.52816 | 96.34353 | 35904 ft | 468 kts | 295° |
| 2026-05-08 05:49 | 4.55500 | 96.28401 | 35900 ft | 468 kts | 295° |
| 2026-05-08 05:50 | 4.58168 | 96.22484 | 35894 ft | 468 kts | 295° |
| 2026-05-08 05:50 | 4.60847 | 96.16539 | 35893 ft | 468 kts | 295° |
| 2026-05-08 05:51 | 4.63525 | 96.10597 | 35890 ft | 468 kts | 295° |
| 2026-05-08 05:51 | 4.66204 | 96.04649 | 35894 ft | 467 kts | 295° |
| 2026-05-08 05:52 | 4.68883 | 95.98703 | 35889 ft | 467 kts | 295° |
| 2026-05-08 05:52 | 4.71560 | 95.92757 | 35886 ft | 467 kts | 295° |
| 2026-05-08 05:53 | 4.74215 | 95.86859 | 35882 ft | 467 kts | 295° |
| 2026-05-08 05:53 | 4.76892 | 95.80911 | 35885 ft | 467 kts | 295° |
| 2026-05-08 05:54 | 4.79564 | 95.74972 | 35884 ft | 468 kts | 295° |
| 2026-05-08 05:54 | 4.82240 | 95.69022 | 35882 ft | 468 kts | 295° |
| 2026-05-08 05:55 | 4.84919 | 95.63064 | 35881 ft | 468 kts | 295° |
| 2026-05-08 05:55 | 4.87596 | 95.57108 | 35879 ft | 468 kts | 295° |
| 2026-05-08 05:56 | 4.90262 | 95.51175 | 35880 ft | 468 kts | 295° |
| 2026-05-08 05:56 | 4.92926 | 95.45242 | 35874 ft | 468 kts | 295° |
| 2026-05-08 05:57 | 4.95608 | 95.39272 | 35870 ft | 468 kts | 295° |
| 2026-05-08 05:57 | 4.98282 | 95.33316 | 35869 ft | 468 kts | 295° |
| 2026-05-08 05:58 | 5.00960 | 95.27350 | 35867 ft | 468 kts | 295° |
| 2026-05-08 05:58 | 5.03635 | 95.21390 | 35865 ft | 468 kts | 295° |
| 2026-05-08 05:59 | 5.06296 | 95.15458 | 35864 ft | 469 kts | 295° |
| 2026-05-08 05:59 | 5.08968 | 95.09500 | 35859 ft | 469 kts | 295° |
| 2026-05-08 06:00 | 5.11645 | 95.03531 | 35861 ft | 469 kts | 295° |
| 2026-05-08 06:00 | 5.14320 | 94.97565 | 35861 ft | 469 kts | 295° |
| 2026-05-08 06:01 | 5.16997 | 94.91592 | 35854 ft | 469 kts | 295° |
| 2026-05-08 06:01 | 5.19644 | 94.85652 | 35860 ft | 469 kts | 295° |
| 2026-05-08 06:02 | 5.22287 | 94.79685 | 35857 ft | 469 kts | 295° |
| 2026-05-08 06:02 | 5.24956 | 94.73702 | 35852 ft | 468 kts | 295° |
| 2026-05-08 06:03 | 5.27663 | 94.67758 | 35853 ft | 468 kts | 295° |
| 2026-05-08 06:03 | 5.30383 | 94.61817 | 35857 ft | 468 kts | 295° |
| 2026-05-08 06:04 | 5.33086 | 94.55911 | 35855 ft | 468 kts | 295° |
| 2026-05-08 06:04 | 5.35800 | 94.49971 | 35854 ft | 468 kts | 295° |
| 2026-05-08 06:05 | 5.38506 | 94.44031 | 35858 ft | 467 kts | 295° |
| 2026-05-08 06:05 | 5.41202 | 94.38086 | 35857 ft | 467 kts | 295° |
| 2026-05-08 06:06 | 5.43890 | 94.32149 | 35861 ft | 466 kts | 295° |
| 2026-05-08 06:06 | 5.46570 | 94.26228 | 35859 ft | 466 kts | 295° |
| 2026-05-08 06:07 | 5.49234 | 94.20342 | 35861 ft | 466 kts | 295° |
| 2026-05-08 06:07 | 5.51916 | 94.14416 | 35859 ft | 466 kts | 295° |
| 2026-05-08 06:08 | 5.54595 | 94.08493 | 35861 ft | 466 kts | 295° |
| 2026-05-08 06:08 | 5.57276 | 94.02563 | 35860 ft | 466 kts | 295° |
| 2026-05-08 06:09 | 5.59942 | 93.96664 | 35860 ft | 466 kts | 295° |
| 2026-05-08 06:09 | 5.62617 | 93.90744 | 35862 ft | 466 kts | 295° |
| 2026-05-08 06:10 | 5.65300 | 93.84803 | 35859 ft | 466 kts | 295° |
| 2026-05-08 06:10 | 5.67961 | 93.78912 | 35861 ft | 466 kts | 296° |
| 2026-05-08 06:11 | 5.70638 | 93.72982 | 35860 ft | 465 kts | 295° |
| 2026-05-08 06:11 | 5.73308 | 93.67068 | 35860 ft | 465 kts | 295° |
| 2026-05-08 06:12 | 5.75978 | 93.61153 | 35859 ft | 465 kts | 295° |
| 2026-05-08 06:12 | 5.78632 | 93.55274 | 35860 ft | 464 kts | 295° |
| 2026-05-08 06:13 | 5.81298 | 93.49364 | 35859 ft | 464 kts | 295° |
| 2026-05-08 06:13 | 5.83528 | 93.44422 | 35860 ft | 463 kts | 295° |
| 2026-05-08 06:14 | 5.86169 | 93.38565 | 35859 ft | 463 kts | 295° |
| 2026-05-08 06:14 | 5.88825 | 93.32672 | 35861 ft | 463 kts | 295° |
| 2026-05-08 06:15 | 5.91484 | 93.26773 | 35859 ft | 463 kts | 295° |
| 2026-05-08 06:15 | 5.94142 | 93.20869 | 35861 ft | 463 kts | 295° |
| 2026-05-08 06:16 | 5.96794 | 93.14980 | 35860 ft | 463 kts | 295° |
| 2026-05-08 06:16 | 5.99431 | 93.09121 | 35858 ft | 463 kts | 295° |
| 2026-05-08 06:17 | 6.03439 | 93.00292 | 35860 ft | 463 kts | 295° |
| 2026-05-08 06:17 | 6.06125 | 92.94406 | 35861 ft | 463 kts | 295° |
| 2026-05-08 06:18 | 6.08813 | 92.88516 | 35859 ft | 463 kts | 295° |
| 2026-05-08 06:18 | 6.11504 | 92.82613 | 35859 ft | 463 kts | 295° |
| 2026-05-08 06:19 | 6.14171 | 92.76756 | 35861 ft | 464 kts | 295° |
| 2026-05-08 06:19 | 6.16861 | 92.70848 | 35859 ft | 464 kts | 295° |
| 2026-05-08 06:20 | 6.19549 | 92.64943 | 35861 ft | 464 kts | 295° |
| 2026-05-08 06:20 | 6.22213 | 92.59088 | 35861 ft | 464 kts | 295° |
| 2026-05-08 06:21 | 6.24893 | 92.53194 | 35861 ft | 463 kts | 295° |
| 2026-05-08 06:21 | 6.27574 | 92.47299 | 35859 ft | 463 kts | 295° |
| 2026-05-08 06:22 | 6.30257 | 92.41396 | 35861 ft | 463 kts | 295° |
| 2026-05-08 06:22 | 6.32936 | 92.35502 | 35860 ft | 463 kts | 295° |
| 2026-05-08 06:23 | 6.35613 | 92.29610 | 35860 ft | 463 kts | 295° |
| 2026-05-08 06:23 | 6.38289 | 92.23718 | 35859 ft | 463 kts | 295° |
| 2026-05-08 06:24 | 6.40952 | 92.17851 | 35859 ft | 463 kts | 295° |
| 2026-05-08 06:24 | 6.43631 | 92.11949 | 35859 ft | 463 kts | 295° |
| 2026-05-08 06:25 | 6.46304 | 92.06056 | 35858 ft | 464 kts | 295° |
| 2026-05-08 06:25 | 6.48983 | 92.00149 | 35858 ft | 464 kts | 295° |
| 2026-05-08 06:26 | 6.51661 | 91.94241 | 35859 ft | 464 kts | 295° |
| 2026-05-08 06:26 | 6.54319 | 91.88374 | 35859 ft | 464 kts | 295° |
| 2026-05-08 06:27 | 6.56994 | 91.82468 | 35861 ft | 464 kts | 295° |
| 2026-05-08 06:27 | 6.59672 | 91.76554 | 35860 ft | 464 kts | 295° |
| 2026-05-08 06:28 | 6.62333 | 91.70674 | 35857 ft | 464 kts | 295° |
| 2026-05-08 06:28 | 6.65010 | 91.64756 | 35860 ft | 464 kts | 295° |
| 2026-05-08 06:29 | 6.67678 | 91.58858 | 35860 ft | 464 kts | 295° |
| 2026-05-08 06:29 | 6.70352 | 91.52944 | 35861 ft | 464 kts | 295° |
| 2026-05-08 06:30 | 6.73026 | 91.47026 | 35860 ft | 464 kts | 295° |
| 2026-05-08 06:30 | 6.75676 | 91.41159 | 35861 ft | 463 kts | 295° |
| 2026-05-08 06:31 | 6.78345 | 91.35248 | 35857 ft | 463 kts | 295° |
| 2026-05-08 06:31 | 6.81012 | 91.29340 | 35861 ft | 463 kts | 295° |
| 2026-05-08 06:32 | 6.83680 | 91.23428 | 35858 ft | 463 kts | 295° |
| 2026-05-08 06:32 | 6.86333 | 91.17548 | 35858 ft | 463 kts | 295° |
| 2026-05-08 06:33 | 6.88999 | 91.11638 | 35858 ft | 464 kts | 295° |
| 2026-05-08 06:33 | 6.91669 | 91.05715 | 35858 ft | 464 kts | 295° |
| 2026-05-08 06:34 | 6.94318 | 90.99837 | 35857 ft | 464 kts | 295° |
| 2026-05-08 06:34 | 6.96990 | 90.93906 | 35858 ft | 464 kts | 295° |
| 2026-05-08 06:35 | 6.99650 | 90.87999 | 35853 ft | 464 kts | 295° |
| 2026-05-08 06:35 | 7.02316 | 90.82074 | 35857 ft | 465 kts | 295° |
| 2026-05-08 06:36 | 7.04990 | 90.76131 | 35858 ft | 464 kts | 295° |
| 2026-05-08 06:36 | 7.07641 | 90.70238 | 35857 ft | 464 kts | 295° |
| 2026-05-08 06:37 | 7.10306 | 90.64311 | 35855 ft | 464 kts | 295° |
| 2026-05-08 06:37 | 7.12520 | 90.59383 | 35855 ft | 464 kts | 295° |
| 2026-05-08 06:38 | 7.15632 | 90.52458 | 35852 ft | 464 kts | 295° |
| 2026-05-08 06:38 | 7.18285 | 90.46551 | 35855 ft | 464 kts | 295° |
| 2026-05-08 06:39 | 7.20928 | 90.40663 | 35853 ft | 463 kts | 295° |
| 2026-05-08 06:39 | 7.23593 | 90.34723 | 35854 ft | 463 kts | 295° |
| 2026-05-08 06:40 | 7.26230 | 90.28844 | 35851 ft | 463 kts | 295° |
| 2026-05-08 06:40 | 7.28884 | 90.22925 | 35852 ft | 463 kts | 295° |
| 2026-05-08 06:41 | 7.31542 | 90.16994 | 35854 ft | 463 kts | 295° |
| 2026-05-08 06:41 | 7.34177 | 90.11111 | 35852 ft | 463 kts | 295° |
| 2026-05-08 06:42 | 7.36830 | 90.05187 | 35854 ft | 463 kts | 295° |
| 2026-05-08 06:42 | 7.39483 | 89.99261 | 35855 ft | 463 kts | 294° |
| 2026-05-08 06:43 | 7.42137 | 89.93329 | 35850 ft | 464 kts | 294° |
| 2026-05-08 06:43 | 7.44771 | 89.87440 | 35848 ft | 463 kts | 294° |
| 2026-05-08 06:44 | 7.47421 | 89.81510 | 35848 ft | 463 kts | 294° |
| 2026-05-08 06:44 | 7.50070 | 89.75581 | 35848 ft | 463 kts | 294° |
| 2026-05-08 06:45 | 7.52707 | 89.69677 | 35848 ft | 463 kts | 294° |
| 2026-05-08 06:45 | 7.55355 | 89.63745 | 35846 ft | 463 kts | 294° |
| 2026-05-08 06:46 | 7.57977 | 89.57871 | 35850 ft | 463 kts | 294° |
| 2026-05-08 06:46 | 7.60615 | 89.51957 | 35847 ft | 463 kts | 294° |
| 2026-05-08 06:47 | 7.63251 | 89.46045 | 35851 ft | 462 kts | 294° |
| 2026-05-08 06:47 | 7.65891 | 89.40118 | 35850 ft | 462 kts | 294° |
| 2026-05-08 06:48 | 7.68522 | 89.34211 | 35850 ft | 462 kts | 294° |
| 2026-05-08 06:48 | 7.71177 | 89.28315 | 35846 ft | 462 kts | 295° |
| 2026-05-08 06:49 | 7.73853 | 89.22450 | 35846 ft | 461 kts | 295° |
| 2026-05-08 06:49 | 7.76543 | 89.16569 | 35847 ft | 461 kts | 295° |
| 2026-05-08 06:50 | 7.79215 | 89.10722 | 35845 ft | 461 kts | 295° |
| 2026-05-08 06:50 | 7.81895 | 89.04849 | 35847 ft | 461 kts | 295° |
| 2026-05-08 06:51 | 7.84574 | 88.98974 | 35843 ft | 461 kts | 295° |
| 2026-05-08 06:51 | 7.87255 | 88.93089 | 35844 ft | 461 kts | 295° |
| 2026-05-08 06:52 | 7.89925 | 88.87226 | 35842 ft | 461 kts | 295° |
| 2026-05-08 06:52 | 7.92602 | 88.81345 | 35839 ft | 460 kts | 295° |
| 2026-05-08 06:53 | 7.95276 | 88.75470 | 35841 ft | 460 kts | 295° |
| 2026-05-08 06:53 | 7.97946 | 88.69600 | 35842 ft | 460 kts | 295° |
| 2026-05-08 06:54 | 8.00623 | 88.63711 | 35843 ft | 461 kts | 295° |
| 2026-05-08 06:54 | 8.03277 | 88.57873 | 35841 ft | 461 kts | 295° |
| 2026-05-08 06:55 | 8.05945 | 88.51998 | 35841 ft | 461 kts | 295° |
| 2026-05-08 06:55 | 8.08616 | 88.46117 | 35842 ft | 461 kts | 295° |
| 2026-05-08 06:56 | 8.11284 | 88.40240 | 35842 ft | 460 kts | 295° |
| 2026-05-08 06:56 | 8.13958 | 88.34349 | 35839 ft | 461 kts | 295° |
| 2026-05-08 06:57 | 8.16611 | 88.28500 | 35841 ft | 461 kts | 295° |
| 2026-05-08 06:57 | 8.19279 | 88.22617 | 35841 ft | 461 kts | 295° |
| 2026-05-08 06:58 | 8.21956 | 88.16708 | 35841 ft | 461 kts | 295° |
| 2026-05-08 06:58 | 8.24607 | 88.10855 | 35838 ft | 461 kts | 295° |
| 2026-05-08 06:59 | 8.27269 | 88.04974 | 35841 ft | 459 kts | 295° |
| 2026-05-08 06:59 | 8.29924 | 87.99109 | 35845 ft | 457 kts | 295° |
| 2026-05-08 07:00 | 8.32559 | 87.93286 | 35842 ft | 458 kts | 295° |
| 2026-05-08 07:00 | 8.34767 | 87.88403 | 35845 ft | 458 kts | 295° |
| 2026-05-08 07:01 | 8.37402 | 87.82572 | 35839 ft | 458 kts | 295° |
| 2026-05-08 07:01 | 8.40055 | 87.76699 | 35842 ft | 458 kts | 294° |